createdAt,value
2022-10-22T00:04:09.821Z,960.21
2022-10-22T00:09:11.131Z,960.16
2022-10-22T00:14:12.968Z,960.21
2022-10-22T00:19:14.179Z,960.27
2022-10-22T00:24:16.054Z,960.29
2022-10-22T00:29:18.139Z,960.29
2022-10-22T00:34:20.120Z,960.29
2022-10-22T00:39:22.057Z,960.47
2022-10-22T00:44:23.568Z,960.55
2022-10-22T00:49:25.444Z,960.71
2022-10-22T00:54:27.234Z,960.94
2022-10-22T00:59:29.347Z,961.07
2022-10-22T01:04:31.469Z,960.91
2022-10-22T01:09:33.116Z,960.75
2022-10-22T01:14:34.777Z,960.76
2022-10-22T01:19:36.450Z,960.6
2022-10-22T01:24:37.865Z,960.39
2022-10-22T01:29:39.866Z,960.34
2022-10-22T01:34:41.170Z,960.39
2022-10-22T01:40:30.849Z,960.43
2022-10-22T01:44:45.362Z,960.65
2022-10-22T01:49:46.538Z,960.63
2022-10-22T01:55:36.194Z,960.59
2022-10-22T02:01:25.816Z,960.49
2022-10-22T02:04:50.868Z,960.53
2022-10-22T02:09:52.528Z,960.61
2022-10-22T02:15:42.177Z,960.84
2022-10-22T02:19:55.892Z,960.94
2022-10-22T02:24:57.998Z,960.97
2022-10-22T02:29:59.358Z,961.02
2022-10-22T02:35:01.341Z,961.08
2022-10-22T02:40:02.878Z,961.15
2022-10-22T02:45:05.025Z,961.19
2022-10-22T02:50:09.364Z,961.22
2022-10-22T02:55:08.668Z,961.26
2022-10-22T03:00:09.843Z,961.24
2022-10-22T03:05:09.906Z,961.26
2022-10-22T03:10:11.689Z,961.18
2022-10-22T03:15:13.174Z,961.16
2022-10-22T03:20:14.517Z,961.17
2022-10-22T03:25:16.297Z,961.19
2022-10-22T03:30:17.780Z,961.22
2022-10-22T03:35:28.499Z,961.23
2022-10-22T03:40:21.328Z,961.29
2022-10-22T03:45:24.050Z,961.48
2022-10-22T03:50:25.847Z,961.75
2022-10-22T03:55:27.974Z,961.79
2022-10-22T04:00:29.900Z,961.68
2022-10-22T04:05:31.876Z,961.63
2022-10-22T04:10:33.735Z,961.68
2022-10-22T04:15:35.252Z,961.75
2022-10-22T04:20:36.308Z,961.74
2022-10-22T04:25:38.546Z,961.68
2022-10-22T04:30:39.801Z,961.73
2022-10-22T04:35:41.333Z,961.77
2022-10-22T04:40:42.830Z,961.67
2022-10-22T04:45:44.321Z,961.7
2022-10-22T04:50:45.640Z,961.67
2022-10-22T04:55:47.299Z,961.75
2022-10-22T05:00:48.885Z,961.82
2022-10-22T05:05:49.099Z,961.85
2022-10-22T05:10:50.670Z,961.88
2022-10-22T05:15:52.751Z,961.83
2022-10-22T05:20:54.513Z,961.96
2022-10-22T05:25:56.587Z,961.8
2022-10-22T05:30:57.844Z,961.81
2022-10-22T05:36:00.667Z,961.89
2022-10-22T05:41:02.142Z,961.95
2022-10-22T05:46:04.033Z,962.11
2022-10-22T05:51:05.744Z,962.15
2022-10-22T05:56:07.544Z,962.06
2022-10-22T06:01:09.361Z,962.15
2022-10-22T06:06:11.135Z,962.02
2022-10-22T06:11:12.524Z,962.12
2022-10-22T06:16:14.458Z,962.09
2022-10-22T06:21:16.614Z,962.15
2022-10-22T06:26:18.500Z,962.27
2022-10-22T06:31:20.257Z,962.29
2022-10-22T06:36:22.169Z,962.23
2022-10-22T06:41:25.593Z,962.38
2022-10-22T06:46:24.998Z,962.57
2022-10-22T06:51:26.659Z,962.63
2022-10-22T06:56:28.417Z,962.74
2022-10-22T07:01:30.241Z,962.78
2022-10-22T07:06:31.451Z,962.87
2022-10-22T07:11:33.390Z,963.15
2022-10-22T07:16:35.029Z,963.35
2022-10-22T08:01:49.375Z,963.87
2022-10-22T08:21:56.066Z,963.97
2022-10-22T08:26:57.706Z,964.11
2022-10-22T08:31:59.701Z,964.27
2022-10-22T08:37:01.830Z,964.25
2022-10-22T08:42:03.044Z,964.31
2022-10-22T08:47:05.102Z,964.36
2022-10-22T08:52:07.033Z,964.44
2022-10-22T08:57:08.517Z,964.47
2022-10-22T09:02:10.088Z,964.5
2022-10-22T09:07:59.708Z,964.45
2022-10-22T09:12:15.314Z,964.56
2022-10-22T09:17:14.313Z,964.73
2022-10-22T09:22:16.229Z,964.76
2022-10-22T09:27:18.049Z,964.76
2022-10-22T09:32:19.825Z,964.78
2022-10-22T09:37:21.382Z,964.69
2022-10-22T09:42:22.744Z,964.72
2022-10-22T09:47:29.088Z,964.73
2022-10-22T09:52:25.282Z,964.77
2022-10-22T09:57:26.653Z,964.77
2022-10-22T10:02:43.677Z,964.77
2022-10-22T10:07:29.439Z,964.79
2022-10-22T10:12:30.863Z,964.7
2022-10-22T10:17:32.746Z,964.74
2022-10-22T10:23:23.098Z,964.7
2022-10-22T10:27:45.765Z,964.63
2022-10-22T10:32:38.866Z,964.64
2022-10-22T10:37:50.875Z,964.6
2022-10-22T10:42:42.831Z,964.62
2022-10-22T10:47:44.367Z,964.68
2022-10-22T10:52:45.197Z,964.6
2022-10-22T10:57:46.607Z,964.62
2022-10-22T11:02:48.117Z,964.61
2022-10-22T11:07:52.147Z,964.56
2022-10-22T11:12:50.687Z,964.52
2022-10-22T11:17:52.831Z,964.49
2022-10-22T11:23:17.285Z,964.54
2022-10-22T11:27:54.009Z,964.51
2022-10-22T11:32:56.622Z,964.51
2022-10-22T11:37:57.704Z,964.5
2022-10-22T11:42:58.956Z,964.51
2022-10-22T11:48:00.197Z,964.47
2022-10-22T11:53:02.167Z,964.45
2022-10-22T11:58:03.467Z,964.43
2022-10-22T12:03:04.830Z,964.43
2022-10-22T12:08:14.894Z,964.4
2022-10-22T12:13:16.062Z,964.42
2022-10-22T12:18:17.475Z,964.45
2022-10-22T12:23:19.655Z,964.36
2022-10-22T12:28:21.326Z,964.3
2022-10-22T12:33:23.531Z,964.26
2022-10-22T12:38:25.158Z,964.24
2022-10-22T12:43:26.887Z,964.19
2022-10-22T12:48:28.703Z,964.22
2022-10-22T12:53:30.055Z,964.22
2022-10-22T12:58:32.145Z,964.19
2022-10-22T13:03:33.653Z,964.14
2022-10-22T13:08:35.891Z,964.1
2022-10-22T13:13:37.634Z,964.08
2022-10-22T13:18:39.536Z,964.04
2022-10-22T13:23:41.310Z,964.04
2022-10-22T13:28:42.588Z,964.04
2022-10-22T13:33:44.318Z,964.02
2022-10-22T13:38:46.195Z,964.05
2022-10-22T13:43:48.315Z,964.05
2022-10-22T13:48:49.425Z,964.1
2022-10-22T13:53:51.459Z,964.09
2022-10-22T13:58:53.702Z,964.11
2022-10-22T14:03:55.033Z,964.15
2022-10-22T14:08:56.568Z,964.09
2022-10-22T14:13:57.769Z,964.14
2022-10-22T14:18:59.717Z,964.13
2022-10-22T14:24:01.172Z,964.16
2022-10-22T14:29:10.954Z,964.2
2022-10-22T14:34:03.799Z,964.29
2022-10-22T14:39:05.275Z,964.23
2022-10-22T14:44:06.945Z,964.29
2022-10-22T14:49:08.187Z,964.34
2022-10-22T14:54:10.124Z,964.38
2022-10-22T14:59:12.218Z,964.41
2022-10-22T15:04:14.360Z,964.42
2022-10-22T15:10:03.976Z,964.44
2022-10-22T15:15:53.600Z,964.49
2022-10-22T15:19:19.966Z,964.56
2022-10-22T15:24:21.642Z,964.58
2022-10-22T15:29:23.310Z,964.6
2022-10-22T15:34:25.414Z,964.61
2022-10-22T15:39:27.422Z,964.66
2022-10-22T15:44:29.552Z,964.64
2022-10-22T15:49:31.042Z,964.7
2022-10-22T15:54:32.623Z,964.82
2022-10-22T15:59:34.635Z,964.83
2022-10-22T16:04:36.242Z,964.84
2022-10-22T16:09:38.238Z,964.88
2022-10-22T16:14:40.354Z,964.92
2022-10-22T16:19:42.387Z,964.93
2022-10-22T16:24:44.250Z,964.96
2022-10-22T16:29:45.873Z,964.93
2022-10-22T16:34:47.455Z,964.92
2022-10-22T16:39:49.478Z,965.03
2022-10-22T16:44:51.347Z,965.14
2022-10-22T16:49:53.556Z,965.23
2022-10-22T16:54:55.004Z,965.3
2022-10-22T16:59:56.526Z,965.34
2022-10-22T17:04:58.176Z,965.42
2022-10-22T17:10:00.014Z,965.43
2022-10-22T17:15:01.616Z,965.49
2022-10-22T17:20:03.776Z,965.5
2022-10-22T17:25:05.056Z,965.51
2022-10-22T17:30:06.960Z,965.56
2022-10-22T17:35:08.532Z,965.58
2022-10-22T17:40:10.266Z,965.65
2022-10-22T17:45:12.254Z,965.72
2022-10-22T17:50:14.108Z,965.78
2022-10-22T17:55:16.019Z,965.81
2022-10-22T18:05:19.731Z,965.91
2022-10-22T18:10:21.714Z,965.96
2022-10-22T18:15:23.480Z,965.91
2022-10-22T18:20:25.657Z,965.93
2022-10-22T18:25:27.025Z,965.85
2022-10-22T18:30:28.410Z,965.9
2022-10-22T18:35:30.331Z,965.93
2022-10-22T18:40:31.629Z,965.88
2022-10-22T18:45:33.731Z,965.91
2022-10-22T18:50:35.580Z,965.89
2022-10-22T18:55:37.568Z,965.97
2022-10-22T19:00:39.800Z,966.04
2022-10-22T19:05:41.019Z,965.96
2022-10-22T19:10:43.148Z,965.91
2022-10-22T19:15:44.574Z,965.88
2022-10-22T19:20:46.656Z,965.89
2022-10-22T19:25:47.845Z,965.9
2022-10-22T19:30:49.687Z,965.88
2022-10-22T19:35:51.237Z,965.85
2022-10-22T19:40:53.179Z,965.82
2022-10-22T19:45:54.536Z,965.86
2022-10-22T19:50:56.133Z,965.92
2022-10-22T20:00:59.784Z,965.84
2022-10-22T20:06:01.376Z,965.82
2022-10-22T20:11:02.776Z,965.88
2022-10-22T20:16:04.458Z,965.88
2022-10-22T20:21:06.559Z,965.9
2022-10-22T20:31:09.879Z,966.05
2022-10-22T20:36:11.673Z,966.05
2022-10-22T20:41:13.740Z,966.04
2022-10-22T20:51:17.729Z,966.13
2022-10-22T20:57:07.350Z,966.26
2022-10-22T21:01:20.889Z,966.15
2022-10-22T21:07:10.449Z,966.13
2022-10-22T21:11:23.529Z,966.13
2022-10-22T21:16:24.706Z,966.08
2022-10-22T21:21:26.626Z,966.1
2022-10-22T21:26:28.713Z,966.18
2022-10-22T21:31:29.890Z,966.13
2022-10-22T21:36:31.420Z,966.09
2022-10-22T21:41:33.547Z,966.16
2022-10-22T21:46:35.495Z,966.18
2022-10-22T21:56:39.231Z,965.96
2022-10-22T22:17:34.030Z,965.97
2022-10-22T22:21:47.656Z,965.9
2022-10-22T22:27:37.334Z,965.83
2022-10-22T22:41:54.204Z,965.89
2022-10-22T22:46:55.741Z,965.91
2022-10-22T22:51:57.704Z,965.8
2022-10-22T22:56:59.750Z,965.62
2022-10-22T23:02:01.434Z,965.65
2022-10-22T23:07:03.478Z,965.71
2022-10-22T23:12:53.107Z,965.73
2022-10-22T23:17:06.918Z,965.69
2022-10-22T23:22:08.841Z,965.55
2022-10-22T23:27:10.132Z,965.48
2022-10-22T23:32:12.199Z,965.41
2022-10-22T23:37:13.981Z,965.38
2022-10-22T23:42:16.070Z,965.34
2022-10-22T23:47:18.220Z,965.27
2022-10-22T23:52:20.086Z,965.24
2022-10-22T23:57:21.294Z,965.23
